createdAt,value
2019-05-18T00:00:26.410Z,0.00
2019-05-18T00:01:26.424Z,0.00
2019-05-18T00:02:26.433Z,0.00
2019-05-18T00:03:26.444Z,0.00
2019-05-18T00:04:26.458Z,0.00
2019-05-18T00:05:26.466Z,0.00
2019-05-18T00:06:26.492Z,0.00
2019-05-18T00:07:26.487Z,0.00
2019-05-18T00:08:26.496Z,0.00
2019-05-18T00:09:26.531Z,0.00
2019-05-18T00:10:26.516Z,0.00
2019-05-18T00:11:26.526Z,0.00
2019-05-18T00:12:26.538Z,0.00
2019-05-18T00:13:26.548Z,0.00
2019-05-18T00:14:26.561Z,0.00
2019-05-18T00:15:26.571Z,0.00
2019-05-18T00:16:26.586Z,0.00
2019-05-18T00:17:26.602Z,0.00
2019-05-18T00:18:26.600Z,0.00
2019-05-18T00:19:26.611Z,0.00
2019-05-18T00:20:26.627Z,0.00
2019-05-18T00:21:26.643Z,0.00
2019-05-18T00:22:26.649Z,0.00
2019-05-18T00:23:26.657Z,0.00
2019-05-18T00:24:26.668Z,0.00
2019-05-18T00:25:26.710Z,0.00
2019-05-18T00:26:26.696Z,0.00
2019-05-18T00:27:26.699Z,0.00
2019-05-18T00:28:26.715Z,0.00
2019-05-18T00:29:26.768Z,0.00
2019-05-18T00:30:26.734Z,0.00
2019-05-18T00:31:26.740Z,0.00
2019-05-18T00:32:26.754Z,0.00
2019-05-18T00:33:26.771Z,0.00
2019-05-18T00:34:26.774Z,0.00
2019-05-18T00:35:26.781Z,0.00
2019-05-18T00:36:26.795Z,0.00
2019-05-18T00:37:26.805Z,0.00
2019-05-18T00:38:26.811Z,0.00
2019-05-18T00:39:26.830Z,0.00
2019-05-18T00:40:26.842Z,0.00
2019-05-18T00:41:26.844Z,0.00
2019-05-18T00:42:26.860Z,0.00
2019-05-18T00:43:26.864Z,0.00
2019-05-18T00:44:26.877Z,0.00
2019-05-18T00:45:26.892Z,0.00
2019-05-18T00:46:26.913Z,0.00
2019-05-18T00:47:40.280Z,0.00
2019-05-18T00:48:26.916Z,0.00
2019-05-18T00:49:26.927Z,0.00
2019-05-18T00:50:26.937Z,0.00
2019-05-18T00:51:26.948Z,0.00
2019-05-18T00:52:26.959Z,0.00
2019-05-18T00:53:26.974Z,0.00
2019-05-18T00:54:26.983Z,0.00
2019-05-18T00:55:26.991Z,0.00
2019-05-18T00:56:27.002Z,0.00
2019-05-18T00:57:27.014Z,0.00
2019-05-18T00:58:27.025Z,0.00
2019-05-18T00:59:27.031Z,0.00
2019-05-18T01:00:27.041Z,0.00
2019-05-18T01:01:27.056Z,0.00
2019-05-18T01:02:27.068Z,0.00
2019-05-18T01:03:27.075Z,0.00
2019-05-18T01:04:27.089Z,0.00
2019-05-18T01:05:27.098Z,0.00
2019-05-18T01:06:27.107Z,0.00
2019-05-18T01:07:27.116Z,0.00
2019-05-18T01:08:27.129Z,0.00
2019-05-18T01:09:27.153Z,0.00
2019-05-18T01:10:27.144Z,0.00
2019-05-18T01:11:27.161Z,0.00
2019-05-18T01:12:27.168Z,0.00
2019-05-18T01:13:27.175Z,0.00
2019-05-18T01:14:27.190Z,0.00
2019-05-18T01:15:27.199Z,0.00
2019-05-18T01:16:27.209Z,0.00
2019-05-18T01:17:27.218Z,0.00
2019-05-18T01:18:27.231Z,0.00
2019-05-18T01:19:27.241Z,0.00
2019-05-18T01:20:27.250Z,0.00
2019-05-18T01:21:27.258Z,0.00
2019-05-18T01:22:27.271Z,0.00
2019-05-18T01:23:27.282Z,0.00
2019-05-18T01:24:27.288Z,0.00
2019-05-18T01:25:27.302Z,0.00
2019-05-18T01:26:27.311Z,0.00
2019-05-18T01:27:27.318Z,0.00
2019-05-18T01:28:27.334Z,0.00
2019-05-18T01:29:27.344Z,0.00
2019-05-18T01:30:27.350Z,0.00
2019-05-18T01:31:27.366Z,0.00
2019-05-18T01:32:27.376Z,0.00
2019-05-18T01:33:27.384Z,0.00
2019-05-18T01:34:27.395Z,0.00
2019-05-18T01:35:27.403Z,0.00
2019-05-18T01:36:27.415Z,0.00
2019-05-18T01:37:27.421Z,0.00
2019-05-18T01:38:27.437Z,0.00
2019-05-18T01:39:27.447Z,0.00
2019-05-18T01:40:27.458Z,0.00
2019-05-18T01:41:27.464Z,0.00
2019-05-18T01:42:27.477Z,0.00
2019-05-18T01:43:27.489Z,0.00
2019-05-18T01:44:27.493Z,0.00
2019-05-18T01:45:27.511Z,0.00
2019-05-18T01:46:27.517Z,0.00
2019-05-18T01:47:27.526Z,0.00
2019-05-18T01:48:27.534Z,0.00
2019-05-18T01:49:27.544Z,0.00
2019-05-18T01:50:27.563Z,0.00
2019-05-18T01:51:27.564Z,0.00
2019-05-18T01:52:27.577Z,0.00
2019-05-18T01:53:27.591Z,0.00
2019-05-18T01:54:27.600Z,0.00
2019-05-18T01:55:27.605Z,0.00
2019-05-18T01:56:27.615Z,0.00
2019-05-18T01:57:27.626Z,0.00
2019-05-18T01:58:27.640Z,0.00
2019-05-18T01:59:27.649Z,0.00
2019-05-18T02:00:27.655Z,0.00
2019-05-18T02:01:27.674Z,0.00
2019-05-18T02:02:27.680Z,0.00
2019-05-18T02:03:27.688Z,0.00
2019-05-18T02:04:27.696Z,0.00
2019-05-18T02:05:27.716Z,0.00
2019-05-18T02:06:27.720Z,0.00
2019-05-18T02:07:27.727Z,0.00
2019-05-18T02:08:27.745Z,0.00
2019-05-18T02:09:27.752Z,0.00
2019-05-18T02:10:27.764Z,0.00
2019-05-18T02:11:27.767Z,0.00
2019-05-18T02:12:27.780Z,0.00
2019-05-18T02:13:27.794Z,0.00
2019-05-18T02:14:27.800Z,0.00
2019-05-18T02:15:27.812Z,0.00
2019-05-18T02:16:27.818Z,0.00
2019-05-18T02:17:27.834Z,0.00
2019-05-18T02:18:29.357Z,0.00
2019-05-18T02:19:27.849Z,0.00
2019-05-18T02:20:27.857Z,0.00
2019-05-18T02:21:27.867Z,0.00
2019-05-18T02:22:27.885Z,0.00
2019-05-18T02:23:27.895Z,0.00
2019-05-18T02:24:27.899Z,0.00
2019-05-18T02:25:27.908Z,0.00
2019-05-18T02:26:27.920Z,0.00
2019-05-18T02:27:27.928Z,0.00
2019-05-18T02:28:27.938Z,0.00
2019-05-18T02:29:27.950Z,0.00
2019-05-18T02:30:27.961Z,0.00
2019-05-18T02:31:27.970Z,0.00
2019-05-18T02:32:27.979Z,0.00
2019-05-18T02:33:27.994Z,0.00
2019-05-18T02:34:28.009Z,0.00
2019-05-18T02:35:28.015Z,0.00
2019-05-18T02:36:28.026Z,0.00
2019-05-18T02:37:28.034Z,0.00
2019-05-18T02:38:28.046Z,0.00
2019-05-18T02:39:28.062Z,0.00
2019-05-18T02:40:28.061Z,0.00
2019-05-18T02:41:28.076Z,0.00
2019-05-18T02:42:30.690Z,0.00
2019-05-18T02:43:28.091Z,0.00
2019-05-18T02:44:28.102Z,0.00
2019-05-18T02:45:28.115Z,0.00
2019-05-18T02:46:28.121Z,0.00
2019-05-18T02:47:28.140Z,0.00
2019-05-18T02:48:28.142Z,0.00
2019-05-18T02:49:28.154Z,0.00
2019-05-18T02:50:28.162Z,0.00
2019-05-18T02:51:28.174Z,0.00
2019-05-18T02:52:28.184Z,0.00
2019-05-18T02:53:28.190Z,0.00
2019-05-18T02:54:28.211Z,0.00
2019-05-18T02:55:28.218Z,0.00
2019-05-18T02:56:28.224Z,0.00
2019-05-18T02:57:28.237Z,0.00
2019-05-18T02:58:28.248Z,0.00
2019-05-18T02:59:28.258Z,0.00
2019-05-18T03:00:28.276Z,0.00
2019-05-18T03:01:28.280Z,0.00
2019-05-18T03:02:28.282Z,0.00
2019-05-18T03:03:28.298Z,0.00
2019-05-18T03:04:28.308Z,0.00
2019-05-18T03:05:28.313Z,0.00
2019-05-18T03:06:28.328Z,0.00
2019-05-18T03:07:28.330Z,0.00
2019-05-18T03:08:28.350Z,0.00
2019-05-18T03:09:28.357Z,0.00
2019-05-18T03:10:28.368Z,0.00
2019-05-18T03:11:28.376Z,0.00
2019-05-18T03:12:28.387Z,0.00
2019-05-18T03:13:28.405Z,0.00
2019-05-18T03:14:28.405Z,0.00
2019-05-18T03:15:28.420Z,0.00
2019-05-18T03:16:28.427Z,0.00
2019-05-18T03:17:28.438Z,0.00
2019-05-18T03:18:28.469Z,0.00
2019-05-18T03:19:28.460Z,0.00
2019-05-18T03:20:28.471Z,0.00
2019-05-18T03:21:28.478Z,0.00
2019-05-18T03:22:28.487Z,0.00
2019-05-18T03:23:28.555Z,0.00
2019-05-18T03:24:28.507Z,0.00
2019-05-18T03:25:28.515Z,0.00
2019-05-18T03:26:28.526Z,0.00
2019-05-18T03:27:28.537Z,0.00
2019-05-18T03:28:28.559Z,0.00
2019-05-18T03:29:28.560Z,0.00
2019-05-18T03:30:28.574Z,0.00
2019-05-18T03:31:28.577Z,0.00
2019-05-18T03:32:28.589Z,0.00
2019-05-18T03:33:30.155Z,0.00
2019-05-18T03:34:28.605Z,0.00
2019-05-18T03:35:28.613Z,0.00
2019-05-18T03:36:28.624Z,0.00
2019-05-18T03:37:28.633Z,4.00
2019-05-18T03:38:28.650Z,0.00
2019-05-18T03:39:28.654Z,0.00
2019-05-18T03:40:28.665Z,0.00
2019-05-18T03:41:28.676Z,0.00
2019-05-18T03:42:28.686Z,0.00
2019-05-18T03:43:28.695Z,0.00
2019-05-18T03:44:28.705Z,0.00
2019-05-18T03:45:28.717Z,0.00
2019-05-18T03:46:28.779Z,0.00
2019-05-18T03:47:28.752Z,4.00
2019-05-18T03:48:28.751Z,0.00
2019-05-18T03:49:28.756Z,0.00
2019-05-18T03:50:28.767Z,4.00
2019-05-18T03:51:28.772Z,0.00
2019-05-18T03:52:28.789Z,4.00
2019-05-18T03:53:28.796Z,0.00
2019-05-18T03:54:28.823Z,4.00
2019-05-18T03:55:28.818Z,4.00
2019-05-18T03:56:28.835Z,4.00
2019-05-18T03:57:28.833Z,4.00
2019-05-18T03:58:28.846Z,4.00
2019-05-18T03:59:28.861Z,4.00
2019-05-18T04:00:28.866Z,4.00
2019-05-18T04:01:28.873Z,4.00
2019-05-18T04:02:28.896Z,4.00
2019-05-18T04:03:28.899Z,4.00
2019-05-18T04:04:28.904Z,8.00
2019-05-18T04:05:28.916Z,8.00
2019-05-18T04:06:28.928Z,8.00
2019-05-18T04:07:28.938Z,8.00
2019-05-18T04:08:28.947Z,8.00
2019-05-18T04:09:28.957Z,8.00
2019-05-18T04:10:28.968Z,8.00
2019-05-18T04:11:28.971Z,12.00
2019-05-18T04:12:28.987Z,8.00
2019-05-18T04:13:28.995Z,12.00
2019-05-18T04:14:29.004Z,12.00
2019-05-18T04:15:29.012Z,12.00
2019-05-18T04:16:29.026Z,12.00
2019-05-18T04:17:29.033Z,16.00
2019-05-18T04:18:29.046Z,16.00
2019-05-18T04:19:44.934Z,16.00
2019-05-18T04:20:29.066Z,20.00
2019-05-18T04:21:29.075Z,20.00
2019-05-18T04:22:29.081Z,20.00
2019-05-18T04:23:29.090Z,24.00
2019-05-18T04:24:29.105Z,20.00
2019-05-18T04:25:29.112Z,24.00
2019-05-18T04:26:29.121Z,24.00
2019-05-18T04:27:29.137Z,28.00
2019-05-18T04:28:29.145Z,28.00
2019-05-18T04:29:29.154Z,28.00
2019-05-18T04:30:29.158Z,32.00
2019-05-18T04:31:32.223Z,32.00
2019-05-18T04:32:29.187Z,32.00
2019-05-18T04:33:29.209Z,36.00
2019-05-18T04:34:29.202Z,40.00
2019-05-18T04:35:29.209Z,40.00
2019-05-18T04:36:29.221Z,40.00
2019-05-18T04:37:29.256Z,40.00
2019-05-18T04:38:29.236Z,44.00
2019-05-18T04:39:29.245Z,44.00
2019-05-18T04:40:29.276Z,44.00
2019-05-18T04:41:29.275Z,48.00
2019-05-18T04:42:29.280Z,48.00
2019-05-18T04:43:29.288Z,52.00
2019-05-18T04:44:29.299Z,52.00
2019-05-18T04:45:29.306Z,52.00
2019-05-18T04:46:29.319Z,52.00
2019-05-18T04:47:29.325Z,56.00
2019-05-18T04:48:29.339Z,56.00
2019-05-18T04:49:29.389Z,60.00
2019-05-18T04:50:29.361Z,60.00
2019-05-18T04:51:29.371Z,60.00
2019-05-18T04:52:29.381Z,60.00
2019-05-18T04:53:29.385Z,64.00
2019-05-18T04:54:29.395Z,64.00
2019-05-18T04:55:29.405Z,68.00
2019-05-18T04:56:29.422Z,68.00
2019-05-18T04:57:29.429Z,68.00
2019-05-18T04:58:29.438Z,68.00
2019-05-18T04:59:29.467Z,72.00
2019-05-18T05:00:29.462Z,72.00
2019-05-18T05:01:29.482Z,76.00
2019-05-18T05:02:29.482Z,76.00
2019-05-18T05:03:29.502Z,80.00
2019-05-18T05:04:29.495Z,80.00
2019-05-18T05:05:29.507Z,84.00
2019-05-18T05:06:29.516Z,84.00
2019-05-18T05:07:29.526Z,84.00
2019-05-18T05:08:29.536Z,88.00
2019-05-18T05:09:29.546Z,88.00
2019-05-18T05:10:29.558Z,92.00
2019-05-18T05:11:29.566Z,96.00
2019-05-18T05:12:29.575Z,100.00
2019-05-18T05:13:29.592Z,100.00
2019-05-18T05:14:29.595Z,100.00
2019-05-18T05:15:29.605Z,100.00
2019-05-18T05:16:29.615Z,100.00
2019-05-18T05:17:29.627Z,104.00
2019-05-18T05:18:29.631Z,104.00
2019-05-18T05:19:29.640Z,108.00
2019-05-18T05:20:29.652Z,108.00
2019-05-18T05:21:29.660Z,112.00
2019-05-18T05:22:29.676Z,112.00
2019-05-18T05:23:29.684Z,116.00
2019-05-18T05:24:29.691Z,116.00
2019-05-18T05:25:29.705Z,112.00
2019-05-18T05:26:29.713Z,112.00
2019-05-18T05:27:29.727Z,112.00
2019-05-18T05:28:29.728Z,112.00
2019-05-18T05:29:29.745Z,116.00
2019-05-18T05:30:29.753Z,116.00
2019-05-18T05:31:29.763Z,120.00
2019-05-18T05:32:29.774Z,120.00
2019-05-18T05:33:29.786Z,124.00
2019-05-18T05:34:29.790Z,128.00
2019-05-18T05:35:29.800Z,132.00
2019-05-18T05:36:29.806Z,132.00
2019-05-18T05:37:29.820Z,132.00
2019-05-18T05:38:29.831Z,140.00
2019-05-18T05:39:29.840Z,140.00
2019-05-18T05:40:29.850Z,144.00
2019-05-18T05:41:29.858Z,152.00
2019-05-18T05:42:29.879Z,152.00
2019-05-18T05:43:29.875Z,156.00
2019-05-18T05:44:29.889Z,160.00
2019-05-18T05:45:29.897Z,172.00
2019-05-18T05:46:29.910Z,172.00
2019-05-18T05:47:29.915Z,164.00
2019-05-18T05:48:29.929Z,160.00
2019-05-18T05:49:29.934Z,160.00
2019-05-18T05:50:35.912Z,156.00
2019-05-18T05:51:29.956Z,148.00
2019-05-18T05:52:29.987Z,140.00
2019-05-18T05:53:29.976Z,148.00
2019-05-18T05:54:29.981Z,148.00
2019-05-18T05:55:29.989Z,148.00
2019-05-18T05:56:30.004Z,152.00
2019-05-18T05:57:30.009Z,160.00
2019-05-18T05:58:30.021Z,160.00
2019-05-18T05:59:30.032Z,164.00
2019-05-18T06:00:30.041Z,164.00
2019-05-18T06:01:30.050Z,172.00
2019-05-18T06:02:30.072Z,180.00
2019-05-18T06:03:30.070Z,184.00
2019-05-18T06:04:30.075Z,184.00
2019-05-18T06:05:30.094Z,196.00
2019-05-18T06:06:30.098Z,196.00
2019-05-18T06:07:30.109Z,192.00
2019-05-18T06:08:30.114Z,200.00
2019-05-18T06:09:30.127Z,208.00
2019-05-18T06:10:30.133Z,228.00
2019-05-18T06:11:30.146Z,244.00
2019-05-18T06:12:30.152Z,256.00
2019-05-18T06:13:30.160Z,260.00
2019-05-18T06:14:30.170Z,264.00
2019-05-18T06:15:30.180Z,268.00
2019-05-18T06:16:30.189Z,272.00
2019-05-18T06:17:30.201Z,272.00
2019-05-18T06:18:30.210Z,288.00
2019-05-18T06:19:30.220Z,288.00
2019-05-18T06:20:30.227Z,292.00
2019-05-18T06:21:30.240Z,284.00
2019-05-18T06:22:30.252Z,276.00
2019-05-18T06:23:30.260Z,272.00
2019-05-18T06:24:30.269Z,272.00
2019-05-18T06:25:34.159Z,260.00
2019-05-18T06:26:30.290Z,260.00
2019-05-18T06:27:30.295Z,268.00
2019-05-18T06:28:30.307Z,276.00
2019-05-18T06:29:30.314Z,280.00
2019-05-18T06:30:30.329Z,264.00
2019-05-18T06:31:30.339Z,272.00
2019-05-18T06:32:30.356Z,260.00
2019-05-18T06:33:30.358Z,276.00
2019-05-18T06:34:30.361Z,268.00
2019-05-18T06:35:30.372Z,268.00
2019-05-18T06:36:30.384Z,280.00
2019-05-18T06:37:30.391Z,288.00
2019-05-18T06:38:30.409Z,312.00
2019-05-18T06:39:30.422Z,316.00
2019-05-18T06:40:30.425Z,320.00
2019-05-18T06:41:30.433Z,328.00
2019-05-18T06:42:30.495Z,320.00
2019-05-18T06:43:30.451Z,304.00
2019-05-18T06:44:30.466Z,308.00
2019-05-18T06:45:30.476Z,312.00
2019-05-18T06:46:30.481Z,308.00
2019-05-18T06:47:30.496Z,300.00
2019-05-18T06:48:30.498Z,296.00
2019-05-18T06:49:30.511Z,292.00
2019-05-18T06:50:30.525Z,288.00
2019-05-18T06:51:30.533Z,284.00
2019-05-18T06:52:30.543Z,288.00
2019-05-18T06:53:30.554Z,288.00
2019-05-18T06:54:30.564Z,288.00
2019-05-18T06:55:30.569Z,288.00
2019-05-18T06:56:30.581Z,288.00
2019-05-18T06:57:30.592Z,280.00
2019-05-18T06:58:30.599Z,284.00
2019-05-18T06:59:30.608Z,284.00
2019-05-18T07:00:30.623Z,276.00
2019-05-18T07:01:30.635Z,268.00
2019-05-18T07:02:30.644Z,264.00
2019-05-18T07:03:30.732Z,268.00
2019-05-18T07:04:30.660Z,268.00
2019-05-18T07:05:30.669Z,272.00
2019-05-18T07:06:30.686Z,276.00
2019-05-18T07:07:30.693Z,280.00
2019-05-18T07:08:30.704Z,288.00
2019-05-18T07:09:30.720Z,288.00
2019-05-18T07:10:30.721Z,296.00
2019-05-18T07:11:30.732Z,300.00
2019-05-18T07:12:30.750Z,312.00
2019-05-18T07:13:30.857Z,316.00
2019-05-18T07:14:30.764Z,312.00
2019-05-18T07:15:30.772Z,316.00
2019-05-18T07:16:30.806Z,324.00
2019-05-18T07:17:30.793Z,328.00
2019-05-18T07:18:30.805Z,328.00
2019-05-18T07:19:30.817Z,332.00
2019-05-18T07:20:30.830Z,336.00
2019-05-18T07:21:30.840Z,340.00
2019-05-18T07:22:30.848Z,340.00
2019-05-18T07:23:30.861Z,340.00
2019-05-18T07:24:30.867Z,340.00
2019-05-18T07:25:30.883Z,340.00
2019-05-18T07:26:30.886Z,340.00
2019-05-18T07:27:30.898Z,340.00
2019-05-18T07:28:30.907Z,340.00
2019-05-18T07:29:30.921Z,344.00
2019-05-18T07:30:30.940Z,344.00
2019-05-18T07:31:30.938Z,344.00
2019-05-18T07:32:30.954Z,344.00
2019-05-18T07:33:30.984Z,348.00
2019-05-18T07:34:30.976Z,352.00
2019-05-18T07:35:30.982Z,352.00
2019-05-18T07:36:30.991Z,356.00
2019-05-18T07:37:31.037Z,352.00
2019-05-18T07:38:31.012Z,356.00
2019-05-18T07:39:31.022Z,348.00
2019-05-18T07:40:31.034Z,336.00
2019-05-18T07:41:45.550Z,336.00
2019-05-18T07:42:31.058Z,332.00
2019-05-18T07:43:31.064Z,328.00
2019-05-18T07:44:31.077Z,336.00
2019-05-18T07:45:31.090Z,336.00
2019-05-18T07:46:31.097Z,336.00
2019-05-18T07:47:31.109Z,340.00
2019-05-18T07:48:31.118Z,356.00
2019-05-18T07:49:31.128Z,372.00
2019-05-18T07:50:31.143Z,376.00
2019-05-18T07:51:37.049Z,380.00
2019-05-18T07:52:31.171Z,384.00
2019-05-18T07:53:31.175Z,392.00
2019-05-18T07:54:31.184Z,396.00
2019-05-18T07:55:31.189Z,400.00
2019-05-18T07:56:31.202Z,408.00
2019-05-18T07:57:31.210Z,416.00
2019-05-18T07:58:31.227Z,416.00
2019-05-18T07:59:31.231Z,416.00
2019-05-18T08:00:31.240Z,424.00
2019-05-18T08:01:31.253Z,424.00
2019-05-18T08:02:31.265Z,432.00
2019-05-18T08:03:31.287Z,440.00
2019-05-18T08:04:31.289Z,432.00
2019-05-18T08:05:31.299Z,432.00
2019-05-18T08:06:31.304Z,440.00
2019-05-18T08:07:31.319Z,440.00
2019-05-18T08:08:31.330Z,452.00
2019-05-18T08:09:31.342Z,460.00
2019-05-18T08:10:31.350Z,444.00
2019-05-18T08:11:31.355Z,444.00
2019-05-18T08:12:31.370Z,440.00
2019-05-18T08:13:31.383Z,448.00
2019-05-18T08:14:31.392Z,452.00
2019-05-18T08:15:31.402Z,448.00
2019-05-18T08:16:31.413Z,448.00
2019-05-18T08:17:31.418Z,452.00
2019-05-18T08:18:31.436Z,456.00
2019-05-18T08:19:31.438Z,464.00
2019-05-18T08:20:31.463Z,488.00
2019-05-18T08:21:31.464Z,540.00
2019-05-18T08:22:31.471Z,552.00
2019-05-18T08:23:31.484Z,528.00
2019-05-18T08:24:31.489Z,532.00
2019-05-18T08:25:31.504Z,536.00
2019-05-18T08:26:31.523Z,516.00
2019-05-18T08:27:31.523Z,508.00
2019-05-18T08:28:31.538Z,512.00
2019-05-18T08:29:31.568Z,488.00
2019-05-18T08:30:31.552Z,468.00
2019-05-18T08:31:31.565Z,456.00
2019-05-18T08:32:31.582Z,472.00
2019-05-18T08:33:31.588Z,472.00
2019-05-18T08:34:31.597Z,448.00
2019-05-18T08:35:31.606Z,460.00
2019-05-18T08:36:31.618Z,524.00
2019-05-18T08:37:31.629Z,556.00
2019-05-18T08:38:31.642Z,500.00
2019-05-18T08:39:31.653Z,464.00
2019-05-18T08:40:31.663Z,460.00
2019-05-18T08:41:31.677Z,504.00
2019-05-18T08:42:31.700Z,468.00
2019-05-18T08:43:31.694Z,556.00
2019-05-18T08:44:31.709Z,468.00
2019-05-18T08:45:31.714Z,472.00
2019-05-18T08:46:31.779Z,500.00
2019-05-18T08:47:31.731Z,600.00
2019-05-18T08:48:31.746Z,628.00
2019-05-18T08:49:31.758Z,652.00
2019-05-18T08:50:31.766Z,672.00
2019-05-18T08:51:31.775Z,664.00
2019-05-18T08:52:31.786Z,632.00
2019-05-18T08:53:31.800Z,600.00
2019-05-18T08:54:31.809Z,520.00
2019-05-18T08:55:31.816Z,580.00
2019-05-18T08:56:31.827Z,568.00
2019-05-18T08:57:31.840Z,648.00
2019-05-18T08:58:31.866Z,532.00
2019-05-18T08:59:31.860Z,600.00
2019-05-18T09:00:31.890Z,592.00
2019-05-18T09:01:31.883Z,608.00
2019-05-18T09:02:31.894Z,644.00
2019-05-18T09:03:31.908Z,624.00
2019-05-18T09:04:31.917Z,572.00
2019-05-18T09:05:31.928Z,656.00
2019-05-18T09:06:31.941Z,644.00
2019-05-18T09:07:31.951Z,672.00
2019-05-18T09:08:31.967Z,612.00
2019-05-18T09:09:31.974Z,628.00
2019-05-18T09:10:31.985Z,608.00
2019-05-18T09:11:32.006Z,588.00
2019-05-18T09:12:32.007Z,556.00
2019-05-18T09:13:32.019Z,524.00
2019-05-18T09:14:32.031Z,516.00
2019-05-18T09:15:32.041Z,516.00
2019-05-18T09:16:32.052Z,540.00
2019-05-18T09:17:32.067Z,564.00
2019-05-18T09:18:32.080Z,572.00
2019-05-18T09:19:32.087Z,576.00
2019-05-18T09:20:32.240Z,596.00
2019-05-18T09:21:32.110Z,612.00
2019-05-18T09:22:32.123Z,584.00
2019-05-18T09:23:32.129Z,608.00
2019-05-18T09:24:32.140Z,620.00
2019-05-18T09:25:32.165Z,612.00
2019-05-18T09:26:32.167Z,580.00
2019-05-18T09:27:32.176Z,592.00
2019-05-18T09:28:32.189Z,592.00
2019-05-18T09:29:32.199Z,604.00
2019-05-18T09:30:32.206Z,608.00
2019-05-18T09:31:32.217Z,580.00
2019-05-18T09:32:32.231Z,556.00
2019-05-18T09:33:32.242Z,540.00
2019-05-18T09:34:32.250Z,536.00
2019-05-18T09:35:32.265Z,528.00
2019-05-18T09:36:32.290Z,536.00
2019-05-18T09:37:32.283Z,536.00
2019-05-18T09:38:33.376Z,532.00
2019-05-18T09:39:32.305Z,532.00
2019-05-18T09:40:32.317Z,544.00
2019-05-18T09:41:32.331Z,548.00
2019-05-18T09:42:32.344Z,556.00
2019-05-18T09:43:32.359Z,552.00
2019-05-18T09:44:32.363Z,552.00
2019-05-18T09:45:32.376Z,556.00
2019-05-18T09:46:32.395Z,552.00
2019-05-18T09:47:32.400Z,548.00
2019-05-18T09:48:32.412Z,548.00
2019-05-18T09:49:32.421Z,548.00
2019-05-18T09:50:32.434Z,540.00
2019-05-18T09:51:32.442Z,536.00
2019-05-18T09:52:44.278Z,528.00
2019-05-18T09:53:32.466Z,528.00
2019-05-18T09:54:32.480Z,536.00
2019-05-18T09:55:32.491Z,544.00
2019-05-18T09:56:32.503Z,548.00
2019-05-18T09:57:32.516Z,548.00
2019-05-18T09:58:32.522Z,544.00
2019-05-18T09:59:32.546Z,556.00
2019-05-18T10:00:38.396Z,556.00
2019-05-18T10:01:32.561Z,548.00
2019-05-18T10:02:32.572Z,548.00
2019-05-18T10:03:32.578Z,560.00
2019-05-18T10:04:32.590Z,564.00
2019-05-18T10:05:32.604Z,588.00
2019-05-18T10:06:32.618Z,548.00
2019-05-18T10:07:32.629Z,544.00
2019-05-18T10:08:32.638Z,528.00
2019-05-18T10:09:38.779Z,520.00
2019-05-18T10:10:33.751Z,516.00
2019-05-18T10:11:38.185Z,512.00
2019-05-18T10:12:32.684Z,508.00
2019-05-18T10:13:32.702Z,508.00
2019-05-18T10:14:32.713Z,512.00
2019-05-18T10:15:32.726Z,516.00
2019-05-18T10:16:32.739Z,520.00
2019-05-18T10:17:32.748Z,532.00
2019-05-18T10:18:32.756Z,536.00
2019-05-18T10:19:32.772Z,544.00
2019-05-18T10:20:32.780Z,544.00
2019-05-18T10:21:32.829Z,540.00
2019-05-18T10:22:32.859Z,548.00
2019-05-18T10:23:32.815Z,552.00
2019-05-18T10:24:32.834Z,560.00
2019-05-18T10:25:32.845Z,572.00
2019-05-18T10:26:32.856Z,584.00
2019-05-18T10:27:32.866Z,604.00
2019-05-18T10:28:32.876Z,620.00
2019-05-18T10:29:32.887Z,660.00
2019-05-18T10:30:32.900Z,676.00
2019-05-18T10:31:32.912Z,676.00
2019-05-18T10:32:32.924Z,644.00
2019-05-18T10:33:32.935Z,656.00
2019-05-18T10:34:32.951Z,668.00
2019-05-18T10:35:32.963Z,664.00
2019-05-18T10:36:32.983Z,664.00
2019-05-18T10:37:32.986Z,680.00
2019-05-18T10:38:33.001Z,680.00
2019-05-18T10:39:33.014Z,688.00
2019-05-18T10:40:33.026Z,700.00
2019-05-18T10:41:33.033Z,696.00
2019-05-18T10:42:33.046Z,668.00
2019-05-18T10:43:33.087Z,644.00
2019-05-18T10:44:33.075Z,640.00
2019-05-18T10:45:33.086Z,640.00
2019-05-18T10:46:33.095Z,644.00
2019-05-18T10:47:33.117Z,668.00
2019-05-18T10:48:33.122Z,684.00
2019-05-18T10:49:33.136Z,692.00
2019-05-18T10:50:33.150Z,736.00
2019-05-18T10:51:33.159Z,748.00
2019-05-18T10:52:33.168Z,796.00
2019-05-18T10:53:33.181Z,768.00
2019-05-18T10:54:33.255Z,684.00
2019-05-18T10:55:33.217Z,708.00
2019-05-18T10:56:33.221Z,704.00
2019-05-18T10:57:33.229Z,612.00
2019-05-18T10:58:33.243Z,592.00
2019-05-18T10:59:33.253Z,588.00
2019-05-18T11:00:33.268Z,580.00
2019-05-18T11:01:33.283Z,576.00
2019-05-18T11:02:33.366Z,580.00
2019-05-18T11:03:33.301Z,588.00
2019-05-18T11:04:33.326Z,584.00
2019-05-18T11:05:33.332Z,584.00
2019-05-18T11:06:33.344Z,584.00
2019-05-18T11:07:33.351Z,564.00
2019-05-18T11:08:33.367Z,556.00
2019-05-18T11:09:33.384Z,552.00
2019-05-18T11:10:33.389Z,544.00
2019-05-18T11:11:33.409Z,540.00
2019-05-18T11:12:33.421Z,540.00
2019-05-18T11:13:33.424Z,540.00
2019-05-18T11:14:33.442Z,540.00
2019-05-18T11:15:33.452Z,540.00
2019-05-18T11:16:33.464Z,528.00
2019-05-18T11:17:33.482Z,516.00
2019-05-18T11:18:33.491Z,496.00
2019-05-18T11:19:33.505Z,476.00
2019-05-18T11:20:33.518Z,464.00
2019-05-18T11:21:33.592Z,452.00
2019-05-18T11:22:33.540Z,448.00
2019-05-18T11:23:43.091Z,444.00
2019-05-18T11:24:33.564Z,436.00
2019-05-18T11:25:33.575Z,436.00
2019-05-18T11:26:33.589Z,440.00
2019-05-18T11:27:33.600Z,436.00
2019-05-18T11:28:33.611Z,436.00
2019-05-18T11:29:33.636Z,440.00
2019-05-18T11:30:33.637Z,440.00
2019-05-18T11:31:33.651Z,444.00
2019-05-18T11:32:33.661Z,452.00
2019-05-18T11:33:33.673Z,456.00
2019-05-18T11:34:33.686Z,460.00
2019-05-18T11:35:33.694Z,464.00
2019-05-18T11:36:33.711Z,464.00
2019-05-18T11:37:33.737Z,456.00
2019-05-18T11:38:33.736Z,448.00
2019-05-18T11:39:33.742Z,440.00
2019-05-18T11:40:33.755Z,432.00
2019-05-18T11:41:33.771Z,432.00
2019-05-18T11:42:33.790Z,432.00
2019-05-18T11:43:33.796Z,432.00
2019-05-18T11:44:33.807Z,428.00
2019-05-18T11:45:33.816Z,428.00
2019-05-18T11:46:33.830Z,420.00
2019-05-18T11:47:33.841Z,412.00
2019-05-18T11:48:33.858Z,396.00
2019-05-18T11:49:33.870Z,380.00
2019-05-18T11:50:33.880Z,368.00
2019-05-18T11:51:33.892Z,364.00
2019-05-18T11:52:33.903Z,356.00
2019-05-18T11:53:33.914Z,352.00
2019-05-18T11:54:33.926Z,348.00
2019-05-18T11:55:33.938Z,348.00
2019-05-18T11:56:33.964Z,348.00
2019-05-18T11:57:33.965Z,344.00
2019-05-18T11:58:33.988Z,348.00
2019-05-18T11:59:33.991Z,348.00
2019-05-18T12:00:34.002Z,352.00
2019-05-18T12:01:34.018Z,356.00
2019-05-18T12:02:34.027Z,364.00
2019-05-18T12:03:34.038Z,364.00
2019-05-18T12:04:34.054Z,364.00
2019-05-18T12:05:34.064Z,360.00
2019-05-18T12:06:34.084Z,360.00
2019-05-18T12:07:34.087Z,356.00
2019-05-18T12:08:34.107Z,360.00
2019-05-18T12:09:34.128Z,364.00
2019-05-18T12:10:34.124Z,372.00
2019-05-18T12:11:34.142Z,372.00
2019-05-18T12:12:34.157Z,364.00
2019-05-18T12:13:34.168Z,352.00
2019-05-18T12:14:34.175Z,348.00
2019-05-18T12:15:34.187Z,340.00
2019-05-18T12:16:34.204Z,340.00
2019-05-18T12:17:34.213Z,340.00
2019-05-18T12:18:34.225Z,340.00
2019-05-18T12:19:34.237Z,344.00
2019-05-18T12:20:34.256Z,344.00
2019-05-18T12:21:34.265Z,344.00
2019-05-18T12:22:34.276Z,344.00
2019-05-18T12:23:34.293Z,348.00
2019-05-18T12:24:34.388Z,348.00
2019-05-18T12:25:34.314Z,344.00
2019-05-18T12:26:34.373Z,340.00
2019-05-18T12:27:34.354Z,336.00
2019-05-18T12:28:34.351Z,340.00
2019-05-18T12:29:34.366Z,344.00
2019-05-18T12:30:34.386Z,348.00
2019-05-18T12:31:34.388Z,348.00
2019-05-18T12:32:34.401Z,356.00
2019-05-18T12:33:34.417Z,360.00
2019-05-18T12:34:34.426Z,368.00
2019-05-18T12:35:34.437Z,372.00
2019-05-18T12:36:34.463Z,376.00
2019-05-18T12:37:34.472Z,376.00
2019-05-18T12:38:34.484Z,376.00
2019-05-18T12:39:34.491Z,384.00
2019-05-18T12:40:34.505Z,392.00
2019-05-18T12:41:34.514Z,400.00
2019-05-18T12:42:34.526Z,408.00
2019-05-18T12:43:34.543Z,412.00
2019-05-18T12:44:34.560Z,408.00
2019-05-18T12:45:34.568Z,404.00
2019-05-18T12:46:34.584Z,400.00